sensor_id;sensor_type;location;lat;lon;timestamp;temperature;humidity
70534;SHT31;58088;51.186;17.130;2023-02-21T00:01:59;11.72;64.94
70534;SHT31;58088;51.186;17.130;2023-02-21T00:04:43;11.72;65.00
70534;SHT31;58088;51.186;17.130;2023-02-21T00:07:28;11.73;65.01
70534;SHT31;58088;51.186;17.130;2023-02-21T00:10:13;11.69;65.18
70534;SHT31;58088;51.186;17.130;2023-02-21T00:12:59;11.71;65.19
70534;SHT31;58088;51.186;17.130;2023-02-21T00:15:44;11.71;65.19
70534;SHT31;58088;51.186;17.130;2023-02-21T00:18:33;11.71;65.20
70534;SHT31;58088;51.186;17.130;2023-02-21T00:21:19;11.70;65.29
70534;SHT31;58088;51.186;17.130;2023-02-21T00:24:05;11.72;65.30
70534;SHT31;58088;51.186;17.130;2023-02-21T00:26:50;11.71;65.37
70534;SHT31;58088;51.186;17.130;2023-02-21T00:29:35;11.71;65.44
70534;SHT31;58088;51.186;17.130;2023-02-21T00:32:20;11.76;65.41
70534;SHT31;58088;51.186;17.130;2023-02-21T00:35:05;11.76;65.34
70534;SHT31;58088;51.186;17.130;2023-02-21T00:37:50;11.74;65.32
70534;SHT31;58088;51.186;17.130;2023-02-21T00:40:36;11.75;65.32
70534;SHT31;58088;51.186;17.130;2023-02-21T00:43:28;11.72;65.37
70534;SHT31;58088;51.186;17.130;2023-02-21T00:46:15;11.72;65.43
70534;SHT31;58088;51.186;17.130;2023-02-21T00:49:01;11.71;65.49
70534;SHT31;58088;51.186;17.130;2023-02-21T00:51:47;11.69;65.59
70534;SHT31;58088;51.186;17.130;2023-02-21T00:54:32;11.70;65.69
70534;SHT31;58088;51.186;17.130;2023-02-21T00:57:17;11.68;65.82
70534;SHT31;58088;51.186;17.130;2023-02-21T01:00:03;11.67;65.95
70534;SHT31;58088;51.186;17.130;2023-02-21T01:02:50;11.68;66.04
70534;SHT31;58088;51.186;17.130;2023-02-21T01:05:34;11.69;66.16
70534;SHT31;58088;51.186;17.130;2023-02-21T01:08:20;11.67;66.28
70534;SHT31;58088;51.186;17.130;2023-02-21T01:11:05;11.66;66.35
70534;SHT31;58088;51.186;17.130;2023-02-21T01:13:50;11.66;66.37
70534;SHT31;58088;51.186;17.130;2023-02-21T01:16:36;11.67;66.38
70534;SHT31;58088;51.186;17.130;2023-02-21T01:19:21;11.68;66.40
70534;SHT31;58088;51.186;17.130;2023-02-21T01:22:10;11.66;66.45
70534;SHT31;58088;51.186;17.130;2023-02-21T01:24:54;11.67;66.55
70534;SHT31;58088;51.186;17.130;2023-02-21T01:27:39;11.68;66.60
70534;SHT31;58088;51.186;17.130;2023-02-21T01:30:24;11.69;66.59
70534;SHT31;58088;51.186;17.130;2023-02-21T01:33:09;11.68;66.66
70534;SHT31;58088;51.186;17.130;2023-02-21T01:35:56;11.67;66.71
70534;SHT31;58088;51.186;17.130;2023-02-21T01:38:40;11.64;66.80
70534;SHT31;58088;51.186;17.130;2023-02-21T01:41:25;11.64;66.96
70534;SHT31;58088;51.186;17.130;2023-02-21T01:44:31;11.61;67.10
70534;SHT31;58088;51.186;17.130;2023-02-21T01:47:24;11.60;67.30
70534;SHT31;58088;51.186;17.130;2023-02-21T01:50:14;11.57;67.38
70534;SHT31;58088;51.186;17.130;2023-02-21T01:53:16;11.52;67.70
70534;SHT31;58088;51.186;17.130;2023-02-21T01:56:05;11.47;67.93
70534;SHT31;58088;51.186;17.130;2023-02-21T01:58:52;11.45;68.05
70534;SHT31;58088;51.186;17.130;2023-02-21T02:04:57;11.40;68.54
70534;SHT31;58088;51.186;17.130;2023-02-21T02:07:44;11.36;68.76
70534;SHT31;58088;51.186;17.130;2023-02-21T02:10:29;11.33;69.09
70534;SHT31;58088;51.186;17.130;2023-02-21T02:15:59;11.29;69.53
70534;SHT31;58088;51.186;17.130;2023-02-21T02:21:58;11.27;69.74
70534;SHT31;58088;51.186;17.130;2023-02-21T02:27:52;11.26;69.97
70534;SHT31;58088;51.186;17.130;2023-02-21T02:30:57;11.25;70.06
70534;SHT31;58088;51.186;17.130;2023-02-21T02:36:50;11.21;70.32
70534;SHT31;58088;51.186;17.130;2023-02-21T02:39:34;11.20;70.40
70534;SHT31;58088;51.186;17.130;2023-02-21T02:51:06;11.12;70.71
70534;SHT31;58088;51.186;17.130;2023-02-21T02:53:37;11.10;70.83
70534;SHT31;58088;51.186;17.130;2023-02-21T02:56:05;11.10;70.81
70534;SHT31;58088;51.186;17.130;2023-02-21T02:58:43;11.09;70.87
70534;SHT31;58088;51.186;17.130;2023-02-21T03:13:33;11.06;71.18
70534;SHT31;58088;51.186;17.130;2023-02-21T03:19:13;11.08;71.20
70534;SHT31;58088;51.186;17.130;2023-02-21T03:21:48;11.11;71.16
70534;SHT31;58088;51.186;17.130;2023-02-21T03:24:33;11.13;71.11
70534;SHT31;58088;51.186;17.130;2023-02-21T03:27:04;11.11;71.20
70534;SHT31;58088;51.186;17.130;2023-02-21T03:29:57;11.09;71.28
70534;SHT31;58088;51.186;17.130;2023-02-21T03:35:10;11.11;71.27
70534;SHT31;58088;51.186;17.130;2023-02-21T03:37:38;11.13;71.23
70534;SHT31;58088;51.186;17.130;2023-02-21T03:40:12;11.12;71.30
70534;SHT31;58088;51.186;17.130;2023-02-21T03:42:49;11.11;71.38
70534;SHT31;58088;51.186;17.130;2023-02-21T03:45:17;11.10;71.42
70534;SHT31;58088;51.186;17.130;2023-02-21T03:47:50;11.04;71.57
70534;SHT31;58088;51.186;17.130;2023-02-21T03:50:17;10.99;71.77
70534;SHT31;58088;51.186;17.130;2023-02-21T03:52:43;10.99;71.92
70534;SHT31;58088;51.186;17.130;2023-02-21T03:55:09;11.07;71.98
70534;SHT31;58088;51.186;17.130;2023-02-21T03:57:36;11.09;71.88
70534;SHT31;58088;51.186;17.130;2023-02-21T04:00:03;11.09;71.84
70534;SHT31;58088;51.186;17.130;2023-02-21T04:02:41;11.08;71.93
70534;SHT31;58088;51.186;17.130;2023-02-21T04:05:12;11.09;71.95
70534;SHT31;58088;51.186;17.130;2023-02-21T04:07:39;11.09;72.01
70534;SHT31;58088;51.186;17.130;2023-02-21T04:10:05;11.08;72.08
70534;SHT31;58088;51.186;17.130;2023-02-21T04:12:44;11.07;72.16
70534;SHT31;58088;51.186;17.130;2023-02-21T04:15:10;11.10;72.13
70534;SHT31;58088;51.186;17.130;2023-02-21T04:17:37;11.10;72.13
70534;SHT31;58088;51.186;17.130;2023-02-21T04:20:04;11.10;72.15
70534;SHT31;58088;51.186;17.130;2023-02-21T04:22:35;11.10;72.28
70534;SHT31;58088;51.186;17.130;2023-02-21T04:25:02;11.11;72.29
70534;SHT31;58088;51.186;17.130;2023-02-21T04:27:33;11.13;72.28
70534;SHT31;58088;51.186;17.130;2023-02-21T04:30:00;11.12;72.30
70534;SHT31;58088;51.186;17.130;2023-02-21T04:32:27;11.10;72.41
70534;SHT31;58088;51.186;17.130;2023-02-21T04:34:53;11.13;72.44
70534;SHT31;58088;51.186;17.130;2023-02-21T04:37:20;11.13;72.43
70534;SHT31;58088;51.186;17.130;2023-02-21T04:39:47;11.12;72.55
70534;SHT31;58088;51.186;17.130;2023-02-21T04:42:15;11.12;72.60
70534;SHT31;58088;51.186;17.130;2023-02-21T04:44:41;11.10;72.69
70534;SHT31;58088;51.186;17.130;2023-02-21T04:47:09;11.08;72.81
70534;SHT31;58088;51.186;17.130;2023-02-21T04:49:35;11.09;72.86
70534;SHT31;58088;51.186;17.130;2023-02-21T04:52:01;11.08;72.96
70534;SHT31;58088;51.186;17.130;2023-02-21T04:54:27;11.07;73.11
70534;SHT31;58088;51.186;17.130;2023-02-21T04:56:53;11.05;73.20
70534;SHT31;58088;51.186;17.130;2023-02-21T04:59:20;11.06;73.22
70534;SHT31;58088;51.186;17.130;2023-02-21T05:01:46;11.03;73.39
70534;SHT31;58088;51.186;17.130;2023-02-21T05:04:12;11.02;73.62
70534;SHT31;58088;51.186;17.130;2023-02-21T05:06:38;11.03;73.72
70534;SHT31;58088;51.186;17.130;2023-02-21T05:09:04;11.04;73.77
70534;SHT31;58088;51.186;17.130;2023-02-21T05:11:31;11.03;73.85
70534;SHT31;58088;51.186;17.130;2023-02-21T05:13:59;11.02;74.02
70534;SHT31;58088;51.186;17.130;2023-02-21T05:16:25;10.98;74.34
70534;SHT31;58088;51.186;17.130;2023-02-21T05:18:51;10.98;74.34
70534;SHT31;58088;51.186;17.130;2023-02-21T05:21:18;10.98;74.37
70534;SHT31;58088;51.186;17.130;2023-02-21T05:23:45;10.99;74.38
70534;SHT31;58088;51.186;17.130;2023-02-21T05:26:22;10.98;74.33
70534;SHT31;58088;51.186;17.130;2023-02-21T05:28:57;10.98;74.33
70534;SHT31;58088;51.186;17.130;2023-02-21T05:31:23;10.97;74.33
70534;SHT31;58088;51.186;17.130;2023-02-21T05:33:50;10.95;74.44
70534;SHT31;58088;51.186;17.130;2023-02-21T05:36:16;10.94;74.57
70534;SHT31;58088;51.186;17.130;2023-02-21T05:39:00;10.94;74.62
70534;SHT31;58088;51.186;17.130;2023-02-21T05:41:27;10.94;74.71
70534;SHT31;58088;51.186;17.130;2023-02-21T05:43:53;10.94;74.74
70534;SHT31;58088;51.186;17.130;2023-02-21T05:46:30;10.95;74.92
70534;SHT31;58088;51.186;17.130;2023-02-21T05:48:59;10.94;74.92
70534;SHT31;58088;51.186;17.130;2023-02-21T05:51:39;10.94;75.06
70534;SHT31;58088;51.186;17.130;2023-02-21T05:54:09;10.91;75.12
70534;SHT31;58088;51.186;17.130;2023-02-21T05:56:42;10.94;75.13
70534;SHT31;58088;51.186;17.130;2023-02-21T05:59:10;10.97;75.06
70534;SHT31;58088;51.186;17.130;2023-02-21T06:01:38;11.00;74.97
70534;SHT31;58088;51.186;17.130;2023-02-21T06:04:05;11.01;74.89
70534;SHT31;58088;51.186;17.130;2023-02-21T06:06:34;11.02;74.89
70534;SHT31;58088;51.186;17.130;2023-02-21T06:09:02;11.03;74.81
70534;SHT31;58088;51.186;17.130;2023-02-21T06:11:30;11.07;74.73
70534;SHT31;58088;51.186;17.130;2023-02-21T06:14:00;11.10;74.64
70534;SHT31;58088;51.186;17.130;2023-02-21T06:16:35;11.13;74.51
70534;SHT31;58088;51.186;17.130;2023-02-21T06:19:04;11.17;74.36
70534;SHT31;58088;51.186;17.130;2023-02-21T06:21:32;11.23;74.17
70534;SHT31;58088;51.186;17.130;2023-02-21T06:23:58;11.25;74.04
70534;SHT31;58088;51.186;17.130;2023-02-21T06:26:24;11.31;73.87
70534;SHT31;58088;51.186;17.130;2023-02-21T06:28:50;11.34;73.80
70534;SHT31;58088;51.186;17.130;2023-02-21T06:31:17;11.36;73.67
70534;SHT31;58088;51.186;17.130;2023-02-21T06:33:45;11.35;73.64
70534;SHT31;58088;51.186;17.130;2023-02-21T06:36:14;11.35;73.65
70534;SHT31;58088;51.186;17.130;2023-02-21T06:38:44;11.40;73.61
70534;SHT31;58088;51.186;17.130;2023-02-21T06:41:15;11.42;73.55
70534;SHT31;58088;51.186;17.130;2023-02-21T06:43:44;11.44;73.48
70534;SHT31;58088;51.186;17.130;2023-02-21T06:46:14;11.46;73.40
70534;SHT31;58088;51.186;17.130;2023-02-21T06:48:45;11.51;73.36
70534;SHT31;58088;51.186;17.130;2023-02-21T06:51:12;11.48;73.37
70534;SHT31;58088;51.186;17.130;2023-02-21T06:53:39;11.48;73.47
70534;SHT31;58088;51.186;17.130;2023-02-21T06:56:06;11.52;73.40
70534;SHT31;58088;51.186;17.130;2023-02-21T06:58:34;11.52;73.37
70534;SHT31;58088;51.186;17.130;2023-02-21T07:01:01;11.55;73.35
70534;SHT31;58088;51.186;17.130;2023-02-21T07:03:27;11.58;73.27
70534;SHT31;58088;51.186;17.130;2023-02-21T07:05:54;11.59;73.21
70534;SHT31;58088;51.186;17.130;2023-02-21T07:08:20;11.60;73.30
70534;SHT31;58088;51.186;17.130;2023-02-21T07:10:46;11.60;73.23
70534;SHT31;58088;51.186;17.130;2023-02-21T07:13:12;11.61;73.21
70534;SHT31;58088;51.186;17.130;2023-02-21T07:15:39;11.60;73.25
70534;SHT31;58088;51.186;17.130;2023-02-21T07:18:05;11.59;73.23
70534;SHT31;58088;51.186;17.130;2023-02-21T07:20:31;11.63;73.20
70534;SHT31;58088;51.186;17.130;2023-02-21T07:22:59;11.65;73.17
70534;SHT31;58088;51.186;17.130;2023-02-21T07:25:26;11.66;73.10
70534;SHT31;58088;51.186;17.130;2023-02-21T07:27:52;11.67;73.06
70534;SHT31;58088;51.186;17.130;2023-02-21T07:30:18;11.70;72.96
70534;SHT31;58088;51.186;17.130;2023-02-21T07:32:45;11.71;72.91
70534;SHT31;58088;51.186;17.130;2023-02-21T07:35:12;11.72;72.93
70534;SHT31;58088;51.186;17.130;2023-02-21T07:37:38;11.75;72.90
70534;SHT31;58088;51.186;17.130;2023-02-21T07:40:05;11.73;73.08
70534;SHT31;58088;51.186;17.130;2023-02-21T07:42:32;11.72;73.38
70534;SHT31;58088;51.186;17.130;2023-02-21T07:44:58;11.68;73.63
70534;SHT31;58088;51.186;17.130;2023-02-21T07:47:25;11.58;74.07
70534;SHT31;58088;51.186;17.130;2023-02-21T07:49:53;11.59;74.16
70534;SHT31;58088;51.186;17.130;2023-02-21T07:52:20;11.60;74.10
70534;SHT31;58088;51.186;17.130;2023-02-21T07:54:47;11.60;74.17
70534;SHT31;58088;51.186;17.130;2023-02-21T07:57:15;11.59;74.23
70534;SHT31;58088;51.186;17.130;2023-02-21T07:59:42;11.55;74.41
70534;SHT31;58088;51.186;17.130;2023-02-21T08:02:10;11.54;74.51
70534;SHT31;58088;51.186;17.130;2023-02-21T08:04:37;11.53;74.59
70534;SHT31;58088;51.186;17.130;2023-02-21T08:07:04;11.53;74.70
70534;SHT31;58088;51.186;17.130;2023-02-21T08:09:30;11.55;74.74
70534;SHT31;58088;51.186;17.130;2023-02-21T08:11:57;11.56;74.72
70534;SHT31;58088;51.186;17.130;2023-02-21T08:14:24;11.57;74.67
70534;SHT31;58088;51.186;17.130;2023-02-21T08:16:50;11.56;74.67
70534;SHT31;58088;51.186;17.130;2023-02-21T08:19:16;11.57;74.59
70534;SHT31;58088;51.186;17.130;2023-02-21T08:21:43;11.60;74.46
70534;SHT31;58088;51.186;17.130;2023-02-21T08:24:11;11.60;74.28
70534;SHT31;58088;51.186;17.130;2023-02-21T08:26:38;11.61;74.15
70534;SHT31;58088;51.186;17.130;2023-02-21T08:29:07;11.65;74.07
70534;SHT31;58088;51.186;17.130;2023-02-21T08:31:37;11.67;74.00
70534;SHT31;58088;51.186;17.130;2023-02-21T08:34:05;11.75;73.84
70534;SHT31;58088;51.186;17.130;2023-02-21T08:36:34;11.77;73.73
70534;SHT31;58088;51.186;17.130;2023-02-21T08:39:04;11.81;73.80
70534;SHT31;58088;51.186;17.130;2023-02-21T08:41:38;11.77;74.40
70534;SHT31;58088;51.186;17.130;2023-02-21T08:44:08;11.74;74.90
70534;SHT31;58088;51.186;17.130;2023-02-21T08:46:36;11.70;75.35
70534;SHT31;58088;51.186;17.130;2023-02-21T08:49:04;11.60;75.79
70534;SHT31;58088;51.186;17.130;2023-02-21T08:51:31;11.57;76.04
70534;SHT31;58088;51.186;17.130;2023-02-21T08:53:58;11.58;76.12
70534;SHT31;58088;51.186;17.130;2023-02-21T08:56:26;11.63;76.20
70534;SHT31;58088;51.186;17.130;2023-02-21T08:58:53;11.67;76.32
70534;SHT31;58088;51.186;17.130;2023-02-21T09:01:20;11.83;76.28
70534;SHT31;58088;51.186;17.130;2023-02-21T09:03:47;11.92;76.02
70534;SHT31;58088;51.186;17.130;2023-02-21T09:06:14;11.94;75.89
70534;SHT31;58088;51.186;17.130;2023-02-21T09:08:42;11.91;75.83
70534;SHT31;58088;51.186;17.130;2023-02-21T09:11:08;11.87;75.85
70534;SHT31;58088;51.186;17.130;2023-02-21T09:13:34;11.84;75.96
70534;SHT31;58088;51.186;17.130;2023-02-21T09:16:01;11.84;75.99
70534;SHT31;58088;51.186;17.130;2023-02-21T09:18:28;11.79;76.11
70534;SHT31;58088;51.186;17.130;2023-02-21T09:20:56;11.85;76.28
70534;SHT31;58088;51.186;17.130;2023-02-21T09:23:23;11.89;76.15
70534;SHT31;58088;51.186;17.130;2023-02-21T09:25:51;11.82;76.17
70534;SHT31;58088;51.186;17.130;2023-02-21T09:28:18;11.85;76.13
70534;SHT31;58088;51.186;17.130;2023-02-21T09:30:46;11.89;76.08
70534;SHT31;58088;51.186;17.130;2023-02-21T09:33:14;11.94;76.00
70534;SHT31;58088;51.186;17.130;2023-02-21T09:35:41;11.89;75.76
70534;SHT31;58088;51.186;17.130;2023-02-21T09:38:07;11.92;75.50
70534;SHT31;58088;51.186;17.130;2023-02-21T09:43:04;11.91;74.76
70534;SHT31;58088;51.186;17.130;2023-02-21T09:46:27;11.97;74.34
70534;SHT31;58088;51.186;17.130;2023-02-21T09:49:02;11.96;74.00
70534;SHT31;58088;51.186;17.130;2023-02-21T09:51:36;11.96;73.97
70534;SHT31;58088;51.186;17.130;2023-02-21T09:54:10;11.96;73.85
70534;SHT31;58088;51.186;17.130;2023-02-21T09:56:53;11.99;73.65
70534;SHT31;58088;51.186;17.130;2023-02-21T09:59:21;12.08;73.50
70534;SHT31;58088;51.186;17.130;2023-02-21T10:07:57;12.56;72.75
70534;SHT31;58088;51.186;17.130;2023-02-21T10:10:29;12.79;72.35
70534;SHT31;58088;51.186;17.130;2023-02-21T10:13:22;13.01;71.91
70534;SHT31;58088;51.186;17.130;2023-02-21T10:16:15;13.26;71.32
70534;SHT31;58088;51.186;17.130;2023-02-21T10:22:01;13.53;69.70
70534;SHT31;58088;51.186;17.130;2023-02-21T10:24:40;13.64;69.67
70534;SHT31;58088;51.186;17.130;2023-02-21T10:27:07;13.63;69.29
70534;SHT31;58088;51.186;17.130;2023-02-21T10:29:50;13.63;69.02
70534;SHT31;58088;51.186;17.130;2023-02-21T10:32:35;13.59;68.90
70534;SHT31;58088;51.186;17.130;2023-02-21T10:35:03;13.55;68.65
70534;SHT31;58088;51.186;17.130;2023-02-21T10:37:37;13.61;68.73
70534;SHT31;58088;51.186;17.130;2023-02-21T10:45:34;13.99;67.37
70534;SHT31;58088;51.186;17.130;2023-02-21T10:48:36;14.13;66.71
70534;SHT31;58088;51.186;17.130;2023-02-21T10:53:34;14.07;64.20
70534;SHT31;58088;51.186;17.130;2023-02-21T10:59:01;13.84;63.38
70534;SHT31;58088;51.186;17.130;2023-02-21T11:01:41;13.83;63.93
70534;SHT31;58088;51.186;17.130;2023-02-21T11:07:27;13.71;65.98
70534;SHT31;58088;51.186;17.130;2023-02-21T11:09:43;13.56;66.99
70534;SHT31;58088;51.186;17.130;2023-02-21T11:14:41;13.16;69.38
70534;SHT31;58088;51.186;17.130;2023-02-21T11:17:29;12.94;70.91
70534;SHT31;58088;51.186;17.130;2023-02-21T11:25:03;12.74;72.70
70534;SHT31;58088;51.186;17.130;2023-02-21T11:30:48;12.66;73.24
70534;SHT31;58088;51.186;17.130;2023-02-21T11:33:43;12.77;73.70
70534;SHT31;58088;51.186;17.130;2023-02-21T11:36:25;13.00;73.73
70534;SHT31;58088;51.186;17.130;2023-02-21T11:38:59;13.16;73.23
70534;SHT31;58088;51.186;17.130;2023-02-21T11:41:56;13.27;72.53
70534;SHT31;58088;51.186;17.130;2023-02-21T11:47:16;13.21;70.57
70534;SHT31;58088;51.186;17.130;2023-02-21T11:53:16;13.19;70.17
70534;SHT31;58088;51.186;17.130;2023-02-21T11:58:46;13.32;70.21
70534;SHT31;58088;51.186;17.130;2023-02-21T12:01:33;13.44;70.02
70534;SHT31;58088;51.186;17.130;2023-02-21T12:04:11;13.51;69.79
70534;SHT31;58088;51.186;17.130;2023-02-21T12:09:45;13.77;69.43
70534;SHT31;58088;51.186;17.130;2023-02-21T12:12:25;13.81;68.90
70534;SHT31;58088;51.186;17.130;2023-02-21T12:18:39;13.66;67.40
70534;SHT31;58088;51.186;17.130;2023-02-21T12:30:00;13.37;65.44
70534;SHT31;58088;51.186;17.130;2023-02-21T12:38:41;13.30;64.94
70534;SHT31;58088;51.186;17.130;2023-02-21T12:45:01;13.09;64.37
70534;SHT31;58088;51.186;17.130;2023-02-21T12:51:05;12.95;63.85
70534;SHT31;58088;51.186;17.130;2023-02-21T12:57:21;12.98;63.65
70534;SHT31;58088;51.186;17.130;2023-02-21T13:00:15;12.98;62.58
70534;SHT31;58088;51.186;17.130;2023-02-21T13:05:47;13.04;62.55
70534;SHT31;58088;51.186;17.130;2023-02-21T13:11:21;13.15;62.57
70534;SHT31;58088;51.186;17.130;2023-02-21T13:14:17;13.28;62.22
70534;SHT31;58088;51.186;17.130;2023-02-21T13:16:52;13.38;61.97
70534;SHT31;58088;51.186;17.130;2023-02-21T13:19:18;13.42;61.34
70534;SHT31;58088;51.186;17.130;2023-02-21T13:27:41;13.37;59.75
70534;SHT31;58088;51.186;17.130;2023-02-21T13:32:58;13.48;59.50
70534;SHT31;58088;51.186;17.130;2023-02-21T13:35:30;13.51;58.74
70534;SHT31;58088;51.186;17.130;2023-02-21T13:38:01;13.57;58.39
70534;SHT31;58088;51.186;17.130;2023-02-21T13:43:35;13.69;57.71
70534;SHT31;58088;51.186;17.130;2023-02-21T13:46:39;13.68;57.23
70534;SHT31;58088;51.186;17.130;2023-02-21T13:57:41;13.53;58.24
70534;SHT31;58088;51.186;17.130;2023-02-21T14:02:56;13.50;58.64
70534;SHT31;58088;51.186;17.130;2023-02-21T14:13:37;13.37;58.77
70534;SHT31;58088;51.186;17.130;2023-02-21T14:16:36;13.35;58.50
70534;SHT31;58088;51.186;17.130;2023-02-21T14:19:22;13.36;58.57
70534;SHT31;58088;51.186;17.130;2023-02-21T14:22:04;13.42;58.89
70534;SHT31;58088;51.186;17.130;2023-02-21T14:24:49;13.43;59.08
70534;SHT31;58088;51.186;17.130;2023-02-21T14:27:29;13.47;59.02
70534;SHT31;58088;51.186;17.130;2023-02-21T14:37:56;13.44;59.03
70534;SHT31;58088;51.186;17.130;2023-02-21T14:45:53;13.44;59.11
70534;SHT31;58088;51.186;17.130;2023-02-21T15:04:23;13.30;57.89
70534;SHT31;58088;51.186;17.130;2023-02-21T15:13:00;13.25;58.86
70534;SHT31;58088;51.186;17.130;2023-02-21T15:15:35;13.23;58.93
70534;SHT31;58088;51.186;17.130;2023-02-21T15:18:07;13.18;59.05
70534;SHT31;58088;51.186;17.130;2023-02-21T15:21:07;13.16;59.25
70534;SHT31;58088;51.186;17.130;2023-02-21T15:23:37;13.15;59.40
70534;SHT31;58088;51.186;17.130;2023-02-21T15:26:21;13.11;59.44
70534;SHT31;58088;51.186;17.130;2023-02-21T15:31:46;13.09;59.87
70534;SHT31;58088;51.186;17.130;2023-02-21T15:36:58;13.07;60.01
70534;SHT31;58088;51.186;17.130;2023-02-21T15:39:39;13.05;59.91
70534;SHT31;58088;51.186;17.130;2023-02-21T15:42:15;13.02;59.57
70534;SHT31;58088;51.186;17.130;2023-02-21T15:45:17;13.00;59.47
70534;SHT31;58088;51.186;17.130;2023-02-21T15:47:44;12.97;59.56
70534;SHT31;58088;51.186;17.130;2023-02-21T15:50:25;12.94;59.48
70534;SHT31;58088;51.186;17.130;2023-02-21T15:53:18;12.88;59.36
70534;SHT31;58088;51.186;17.130;2023-02-21T15:55:51;12.82;59.33
70534;SHT31;58088;51.186;17.130;2023-02-21T15:58:20;12.77;59.30
70534;SHT31;58088;51.186;17.130;2023-02-21T16:01:05;12.71;59.36
70534;SHT31;58088;51.186;17.130;2023-02-21T16:03:39;12.64;59.37
70534;SHT31;58088;51.186;17.130;2023-02-21T16:08:59;12.53;59.44
70534;SHT31;58088;51.186;17.130;2023-02-21T16:11:59;12.46;59.63
70534;SHT31;58088;51.186;17.130;2023-02-21T16:17:55;12.33;59.73
70534;SHT31;58088;51.186;17.130;2023-02-21T16:20:41;12.29;59.79
70534;SHT31;58088;51.186;17.130;2023-02-21T16:25:58;12.17;59.84
70534;SHT31;58088;51.186;17.130;2023-02-21T16:28:45;12.15;59.80
70534;SHT31;58088;51.186;17.130;2023-02-21T16:31:16;12.13;59.73
70534;SHT31;58088;51.186;17.130;2023-02-21T16:34:15;12.11;59.68
70534;SHT31;58088;51.186;17.130;2023-02-21T16:36:41;12.08;59.63
70534;SHT31;58088;51.186;17.130;2023-02-21T16:39:08;12.08;59.75
70534;SHT31;58088;51.186;17.130;2023-02-21T16:41:37;12.07;59.77
70534;SHT31;58088;51.186;17.130;2023-02-21T16:44:04;12.06;59.93
70534;SHT31;58088;51.186;17.130;2023-02-21T16:46:30;12.05;60.12
70534;SHT31;58088;51.186;17.130;2023-02-21T16:48:57;12.04;60.21
70534;SHT31;58088;51.186;17.130;2023-02-21T16:51:26;11.99;60.05
70534;SHT31;58088;51.186;17.130;2023-02-21T16:53:58;11.96;60.06
70534;SHT31;58088;51.186;17.130;2023-02-21T16:56:26;11.91;60.27
70534;SHT31;58088;51.186;17.130;2023-02-21T16:58:53;11.88;60.54
70534;SHT31;58088;51.186;17.130;2023-02-21T17:01:28;11.82;60.60
70534;SHT31;58088;51.186;17.130;2023-02-21T17:04:17;11.75;60.45
70534;SHT31;58088;51.186;17.130;2023-02-21T17:06:50;11.68;60.40
70534;SHT31;58088;51.186;17.130;2023-02-21T17:09:27;11.62;60.48
70534;SHT31;58088;51.186;17.130;2023-02-21T17:12:06;11.55;60.55
70534;SHT31;58088;51.186;17.130;2023-02-21T17:14:33;11.46;60.53
70534;SHT31;58088;51.186;17.130;2023-02-21T17:17:00;11.41;60.59
70534;SHT31;58088;51.186;17.130;2023-02-21T17:19:26;11.37;60.63
70534;SHT31;58088;51.186;17.130;2023-02-21T17:21:53;11.35;60.78
70534;SHT31;58088;51.186;17.130;2023-02-21T17:24:23;11.32;60.94
70534;SHT31;58088;51.186;17.130;2023-02-21T17:26:53;11.32;61.00
70534;SHT31;58088;51.186;17.130;2023-02-21T17:29:20;11.28;61.03
70534;SHT31;58088;51.186;17.130;2023-02-21T17:31:50;11.24;61.03
70534;SHT31;58088;51.186;17.130;2023-02-21T17:34:21;11.21;60.92
70534;SHT31;58088;51.186;17.130;2023-02-21T17:36:48;11.17;60.72
70534;SHT31;58088;51.186;17.130;2023-02-21T17:39:18;11.14;60.70
70534;SHT31;58088;51.186;17.130;2023-02-21T17:41:47;11.15;60.65
70534;SHT31;58088;51.186;17.130;2023-02-21T17:44:16;11.14;60.57
70534;SHT31;58088;51.186;17.130;2023-02-21T17:46:46;11.13;60.45
70534;SHT31;58088;51.186;17.130;2023-02-21T17:49:20;11.10;60.37
70534;SHT31;58088;51.186;17.130;2023-02-21T17:51:52;11.09;60.34
70534;SHT31;58088;51.186;17.130;2023-02-21T17:54:21;11.09;60.34
70534;SHT31;58088;51.186;17.130;2023-02-21T17:56:50;11.08;60.31
70534;SHT31;58088;51.186;17.130;2023-02-21T17:59:19;11.06;60.35
70534;SHT31;58088;51.186;17.130;2023-02-21T18:01:46;11.03;60.41
70534;SHT31;58088;51.186;17.130;2023-02-21T18:04:13;11.01;60.46
70534;SHT31;58088;51.186;17.130;2023-02-21T18:06:40;10.99;60.51
70534;SHT31;58088;51.186;17.130;2023-02-21T18:09:07;10.97;60.62
70534;SHT31;58088;51.186;17.130;2023-02-21T18:11:36;10.95;60.82
70534;SHT31;58088;51.186;17.130;2023-02-21T18:14:03;10.94;60.88
70534;SHT31;58088;51.186;17.130;2023-02-21T18:16:30;10.92;60.92
70534;SHT31;58088;51.186;17.130;2023-02-21T18:18:58;10.89;61.05
70534;SHT31;58088;51.186;17.130;2023-02-21T18:21:24;10.87;61.11
70534;SHT31;58088;51.186;17.130;2023-02-21T18:23:52;10.86;60.93
70534;SHT31;58088;51.186;17.130;2023-02-21T18:26:20;10.85;60.84
70534;SHT31;58088;51.186;17.130;2023-02-21T18:28:48;10.83;60.90
70534;SHT31;58088;51.186;17.130;2023-02-21T18:31:20;10.78;61.16
70534;SHT31;58088;51.186;17.130;2023-02-21T18:33:47;10.73;61.38
70534;SHT31;58088;51.186;17.130;2023-02-21T18:36:14;10.69;61.30
70534;SHT31;58088;51.186;17.130;2023-02-21T18:38:41;10.59;61.44
70534;SHT31;58088;51.186;17.130;2023-02-21T18:41:09;10.56;61.27
70534;SHT31;58088;51.186;17.130;2023-02-21T18:43:42;10.53;61.10
70534;SHT31;58088;51.186;17.130;2023-02-21T18:46:10;10.51;60.93
70534;SHT31;58088;51.186;17.130;2023-02-21T18:48:40;10.49;60.84
70534;SHT31;58088;51.186;17.130;2023-02-21T18:51:12;10.48;60.82
70534;SHT31;58088;51.186;17.130;2023-02-21T18:53:42;10.46;60.80
70534;SHT31;58088;51.186;17.130;2023-02-21T18:56:10;10.44;60.78
70534;SHT31;58088;51.186;17.130;2023-02-21T18:58:44;10.42;60.80
70534;SHT31;58088;51.186;17.130;2023-02-21T19:01:14;10.41;60.84
70534;SHT31;58088;51.186;17.130;2023-02-21T19:03:45;10.40;60.80
70534;SHT31;58088;51.186;17.130;2023-02-21T19:06:16;10.42;60.79
70534;SHT31;58088;51.186;17.130;2023-02-21T19:08:46;10.38;60.90
70534;SHT31;58088;51.186;17.130;2023-02-21T19:11:16;10.33;60.90
70534;SHT31;58088;51.186;17.130;2023-02-21T19:13:43;10.29;60.89
70534;SHT31;58088;51.186;17.130;2023-02-21T19:16:15;10.28;61.03
70534;SHT31;58088;51.186;17.130;2023-02-21T19:18:46;10.27;61.03
70534;SHT31;58088;51.186;17.130;2023-02-21T19:21:16;10.26;61.03
70534;SHT31;58088;51.186;17.130;2023-02-21T19:23:49;10.21;61.02